Time;durP1;ratioP1;P1;durP2;ratioP2;P2;SDS_P1;SDS_P2;PMS_P1;PMS_P2;Temp;Humidity;BMP_temperature;BMP_pressure;BME280_temperature;BME280_humidity;BME280_pressure;Samples;Min_cycle;Max_cycle;Signal;HPM_P1;HPM_P2
2022/03/10 00:01:57;;;;;;;24.20;20.13;;;7.80;41.50;;;;;;5097352;28;20181;-44
2022/03/10 00:04:24;;;;;;;31.13;21.03;;;7.50;39.60;;;;;;5098650;28;20185;-44
2022/03/10 00:06:49;;;;;;;26.93;21.47;;;7.30;38.70;;;;;;5097744;28;20200;-43
2022/03/10 00:09:16;;;;;;;26.40;22.60;;;7.10;37.10;;;;;;5099004;28;20427;-44
2022/03/10 00:11:41;;;;;;;30.80;23.30;;;6.90;36.30;;;;;;5090808;28;20193;-45
2022/03/10 00:14:07;;;;;;;32.00;22.53;;;6.60;35.90;;;;;;5098192;28;20485;-44
2022/03/10 00:16:33;;;;;;;28.33;21.60;;;6.40;35.50;;;;;;5097586;28;20224;-45
2022/03/10 00:18:58;;;;;;;30.30;23.00;;;6.20;35.50;;;;;;5097804;28;20216;-41
2022/03/10 00:21:24;;;;;;;32.53;23.40;;;6.00;35.20;;;;;;5096716;28;20512;-43
2022/03/10 00:23:49;;;;;;;32.13;22.80;;;5.80;35.20;;;;;;5098683;28;20188;-43
2022/03/10 00:26:15;;;;;;;30.33;22.10;;;5.70;35.30;;;;;;5097888;28;20217;-43
2022/03/10 00:28:42;;;;;;;29.43;21.23;;;5.60;35.30;;;;;;5098261;28;20269;-43
2022/03/10 00:31:07;;;;;;;30.60;22.20;;;5.60;35.40;;;;;;5097010;28;20411;-43
2022/03/10 00:33:33;;;;;;;28.70;21.67;;;5.50;35.50;;;;;;5097484;28;20583;-44
2022/03/10 00:35:58;;;;;;;29.10;21.40;;;5.40;35.40;;;;;;5096972;28;20177;-44
2022/03/10 00:38:24;;;;;;;28.03;22.53;;;5.40;35.50;;;;;;5097830;28;20209;-43
2022/03/10 00:40:49;;;;;;;31.27;22.23;;;5.30;35.50;;;;;;5097393;28;20196;-43
2022/03/10 00:43:15;;;;;;;33.30;22.53;;;5.20;35.60;;;;;;5098685;28;20173;-44
2022/03/10 00:45:41;;;;;;;33.23;22.97;;;5.20;35.70;;;;;;5097884;28;20169;-44
2022/03/10 00:48:07;;;;;;;30.30;21.03;;;5.10;35.70;;;;;;5095879;28;20192;-44
2022/03/10 00:50:32;;;;;;;29.93;22.00;;;5.10;35.80;;;;;;5097813;28;20185;-44
2022/03/10 00:52:59;;;;;;;28.03;21.43;;;5.10;35.90;;;;;;5097006;28;20419;-44
2022/03/10 00:55:25;;;;;;;30.10;21.50;;;5.00;36.00;;;;;;5097722;28;20204;-44
2022/03/10 00:57:51;;;;;;;31.73;21.43;;;5.00;36.10;;;;;;5095992;28;20419;-44
2022/03/10 01:00:17;;;;;;;31.23;22.57;;;4.90;36.00;;;;;;5098144;28;20181;-43
2022/03/10 01:02:43;;;;;;;29.17;21.70;;;4.90;36.10;;;;;;5098503;28;20419;-43
2022/03/10 01:05:09;;;;;;;29.10;21.40;;;4.80;36.10;;;;;;5096680;28;20480;-42
2022/03/10 01:07:35;;;;;;;31.13;21.97;;;4.80;36.20;;;;;;5097487;28;20195;-43
2022/03/10 01:10:03;;;;;;;31.70;21.93;;;4.70;36.30;;;;;;5096413;28;20419;-43
2022/03/10 01:12:29;;;;;;;32.27;23.97;;;4.70;36.40;;;;;;5099050;28;20422;-44
2022/03/10 01:14:54;;;;;;;31.53;22.87;;;4.60;36.40;;;;;;5082382;28;20513;-43
2022/03/10 01:17:20;;;;;;;29.17;21.57;;;4.60;36.50;;;;;;5101718;28;20605;-43
2022/03/10 01:19:47;;;;;;;36.13;22.80;;;4.50;36.60;;;;;;5100599;28;20295;-43
2022/03/10 01:22:12;;;;;;;31.20;21.67;;;4.50;36.70;;;;;;5101629;28;20264;-44
2022/03/10 01:24:39;;;;;;;36.70;23.70;;;4.50;36.70;;;;;;5100494;28;20876;-44
2022/03/10 01:27:05;;;;;;;31.80;21.57;;;4.50;36.70;;;;;;5101592;28;20236;-44
2022/03/10 01:29:31;;;;;;;32.00;23.60;;;4.40;36.70;;;;;;5100942;28;20583;-43
2022/03/10 01:31:56;;;;;;;29.23;20.33;;;4.40;36.70;;;;;;5101287;28;20641;-44
2022/03/10 01:34:22;;;;;;;33.57;22.40;;;4.40;36.80;;;;;;5100245;28;20184;-44
2022/03/10 01:36:47;;;;;;;29.57;21.00;;;4.30;36.80;;;;;;5101932;28;20188;-44
2022/03/10 01:39:13;;;;;;;32.37;21.77;;;4.30;36.90;;;;;;5100279;28;20200;-44
2022/03/10 01:41:38;;;;;;;28.70;20.80;;;4.20;37.00;;;;;;5101853;28;20580;-44
2022/03/10 01:44:06;;;;;;;32.90;22.30;;;4.20;37.10;;;;;;5099787;28;20187;-44
2022/03/10 01:46:32;;;;;;;28.70;21.50;;;4.20;37.10;;;;;;5101258;28;20177;-44
2022/03/10 01:48:58;;;;;;;31.10;21.73;;;4.20;37.10;;;;;;5100637;28;20469;-44
2022/03/10 01:51:24;;;;;;;29.77;21.33;;;4.10;37.00;;;;;;5080696;28;20434;-44
2022/03/10 01:53:50;;;;;;;30.47;22.20;;;4.10;37.10;;;;;;5082137;28;20177;-44
2022/03/10 01:56:20;;;;;;;32.00;21.13;;;4.10;37.10;;;;;;5101182;28;20419;-44
2022/03/10 01:58:47;;;;;;;33.50;23.07;;;4.00;37.10;;;;;;5099814;28;20430;-44
2022/03/10 02:01:14;;;;;;;31.77;22.10;;;4.00;37.20;;;;;;5100901;28;20833;-44
2022/03/10 02:03:40;;;;;;;33.00;23.00;;;4.00;37.30;;;;;;5100247;28;20415;-42
2022/03/10 02:06:06;;;;;;;32.10;23.20;;;3.90;37.40;;;;;;5099609;28;20501;-43
2022/03/10 02:11:18;;;;;;;27.80;22.50;;;3.80;37.60;;;;;;5100619;28;20472;-43
2022/03/10 02:13:43;;;;;;;33.37;21.93;;;3.80;37.70;;;;;;5100048;28;20419;-43
2022/03/10 02:18:54;;;;;;;30.27;21.50;;;3.80;38.20;;;;;;5099565;28;20196;-43
2022/03/10 02:21:20;;;;;;;33.10;24.70;;;3.70;37.90;;;;;;5099855;28;20415;-44
2022/03/10 02:23:45;;;;;;;29.63;21.50;;;3.60;38.00;;;;;;5098756;28;20686;-42
2022/03/10 02:26:12;;;;;;;32.87;23.13;;;3.60;38.20;;;;;;5100122;28;20569;-43
2022/03/10 02:28:39;;;;;;;30.70;20.40;;;3.60;38.40;;;;;;5099165;28;20216;-43
2022/03/10 02:31:04;;;;;;;30.93;21.03;;;3.50;38.40;;;;;;5099547;28;20407;-43
2022/03/10 02:33:30;;;;;;;32.20;22.53;;;3.50;38.60;;;;;;5099051;28;20706;-43
2022/03/10 02:35:56;;;;;;;31.10;22.67;;;3.50;39.10;;;;;;5100165;28;20475;-43
2022/03/10 02:38:21;;;;;;;32.37;23.57;;;3.50;38.70;;;;;;5099630;28;20582;-43
2022/03/10 02:40:48;;;;;;;31.30;21.80;;;3.50;38.70;;;;;;5099343;28;20185;-43
2022/03/10 02:43:15;;;;;;;29.40;21.67;;;3.50;38.80;;;;;;5087917;28;20246;-44
2022/03/10 02:45:42;;;;;;;37.93;23.17;;;3.40;38.70;;;;;;5099964;28;20411;-43
2022/03/10 02:48:07;;;;;;;36.37;21.77;;;3.40;38.80;;;;;;5099681;28;20428;-44
2022/03/10 02:50:33;;;;;;;33.17;23.40;;;3.40;38.80;;;;;;5100725;28;20407;-43
2022/03/10 02:52:59;;;;;;;32.10;24.13;;;3.30;38.90;;;;;;5099589;28;20180;-43
2022/03/10 02:55:24;;;;;;;34.20;23.03;;;3.30;39.00;;;;;;5100120;28;20204;-43
2022/03/10 02:57:50;;;;;;;30.67;22.83;;;3.30;39.10;;;;;;5099065;28;20173;-43
2022/03/10 03:00:17;;;;;;;32.50;21.27;;;3.30;39.10;;;;;;5099886;28;20242;-44
2022/03/10 03:02:43;;;;;;;32.53;22.50;;;3.20;39.10;;;;;;5099911;28;20427;-43
2022/03/10 03:05:12;;;;;;;32.63;21.67;;;3.20;39.20;;;;;;5099543;28;20731;-43
2022/03/10 03:07:38;;;;;;;30.93;21.13;;;3.20;39.10;;;;;;5098883;28;20407;-42
2022/03/10 03:10:04;;;;;;;39.30;27.00;;;3.20;39.10;;;;;;5099008;28;20485;-43
2022/03/10 03:12:31;;;;;;;40.67;29.60;;;3.20;39.10;;;;;;5099856;28;20438;-43
2022/03/10 03:14:56;;;;;;;38.03;26.30;;;3.20;39.20;;;;;;5098486;28;20462;-43
2022/03/10 03:17:24;;;;;;;36.70;26.50;;;3.20;39.10;;;;;;5099918;28;20767;-43
2022/03/10 03:19:50;;;;;;;37.60;24.17;;;3.10;39.10;;;;;;5098535;28;20181;-43
2022/03/10 03:22:16;;;;;;;35.00;24.37;;;3.10;39.30;;;;;;5098576;28;20713;-43
2022/03/10 03:24:42;;;;;;;33.33;23.00;;;3.10;39.40;;;;;;5098515;28;20427;-43
2022/03/10 03:27:08;;;;;;;31.83;23.07;;;3.10;39.80;;;;;;5098979;28;20236;-43
2022/03/10 03:29:33;;;;;;;31.70;22.87;;;3.00;39.40;;;;;;5098754;28;20882;-44
2022/03/10 03:31:59;;;;;;;30.63;22.23;;;3.00;39.50;;;;;;5099219;28;20173;-44
2022/03/10 03:34:25;;;;;;;33.53;22.50;;;3.00;39.50;;;;;;5098538;28;20177;-41
2022/03/10 03:36:51;;;;;;;31.50;23.03;;;3.00;39.50;;;;;;5098266;28;20419;-44
2022/03/10 03:39:17;;;;;;;31.53;21.30;;;2.90;39.40;;;;;;5097971;28;20181;-44
2022/03/10 03:41:43;;;;;;;28.23;21.50;;;2.90;39.50;;;;;;5099267;28;20778;-44
2022/03/10 03:44:09;;;;;;;27.17;19.97;;;2.90;39.50;;;;;;5097779;28;20541;-44
2022/03/10 03:46:36;;;;;;;27.40;20.10;;;2.90;39.60;;;;;;5099605;28;20419;-44
2022/03/10 03:49:01;;;;;;;25.47;19.70;;;2.80;39.60;;;;;;5097453;28;20517;-42
2022/03/10 03:51:27;;;;;;;30.07;21.83;;;2.80;39.60;;;;;;5098404;28;20490;-44
2022/03/10 03:53:53;;;;;;;26.20;20.17;;;2.70;39.70;;;;;;5097068;28;20180;-44
2022/03/10 03:56:19;;;;;;;25.87;18.80;;;2.70;39.80;;;;;;5097601;28;20579;-43
2022/03/10 03:58:44;;;;;;;31.47;19.87;;;2.70;39.80;;;;;;5095964;28;20181;-44
2022/03/10 04:01:10;;;;;;;26.33;19.43;;;2.70;39.80;;;;;;5097219;28;20177;-44
2022/03/10 04:03:36;;;;;;;27.67;19.60;;;2.70;39.80;;;;;;5095008;28;20173;-44
2022/03/10 04:06:01;;;;;;;25.07;18.10;;;2.70;39.80;;;;;;5096756;28;20177;-44
2022/03/10 04:08:27;;;;;;;25.77;18.23;;;2.70;39.80;;;;;;5094092;28;20257;-44
2022/03/10 04:10:53;;;;;;;22.90;17.87;;;2.70;39.70;;;;;;5095247;28;20188;-44
2022/03/10 04:13:21;;;;;;;26.40;19.10;;;2.70;39.80;;;;;;5094860;28;20517;-43
2022/03/10 04:15:48;;;;;;;26.63;19.97;;;2.60;39.80;;;;;;5097167;28;20176;-44
2022/03/10 04:18:13;;;;;;;32.10;21.23;;;2.60;39.90;;;;;;5095585;28;20419;-43
2022/03/10 04:20:39;;;;;;;25.67;19.77;;;2.60;40.00;;;;;;5097224;28;20418;-44
2022/03/10 04:23:04;;;;;;;26.17;19.50;;;2.60;40.00;;;;;;5097441;28;20594;-45
2022/03/10 04:25:30;;;;;;;26.83;20.13;;;2.50;40.00;;;;;;5098338;28;20259;-43
2022/03/10 04:27:56;;;;;;;25.17;18.33;;;2.50;40.10;;;;;;5096616;28;20477;-44
2022/03/10 04:30:22;;;;;;;27.07;18.67;;;2.50;40.10;;;;;;5097852;28;20246;-44
2022/03/10 04:32:48;;;;;;;26.30;18.40;;;2.50;40.20;;;;;;5098381;28;20181;-44
2022/03/10 04:35:16;;;;;;;23.90;16.80;;;2.50;40.30;;;;;;5096539;28;20506;-43
2022/03/10 04:37:42;;;;;;;22.77;17.50;;;2.40;40.30;;;;;;5097537;28;20419;-44
2022/03/10 04:40:08;;;;;;;25.23;18.23;;;2.40;40.40;;;;;;5094780;28;20469;-44
2022/03/10 04:42:35;;;;;;;20.23;15.30;;;2.40;40.30;;;;;;5095372;28;20517;-41
2022/03/10 04:45:01;;;;;;;24.77;17.53;;;2.40;40.30;;;;;;5095156;28;20426;-44
2022/03/10 04:47:27;;;;;;;25.30;17.30;;;2.50;40.30;;;;;;5094779;28;20825;-44
2022/03/10 04:49:53;;;;;;;28.50;19.37;;;2.40;40.20;;;;;;5094548;28;20474;-44
2022/03/10 04:52:18;;;;;;;28.27;18.90;;;2.40;40.30;;;;;;5096093;28;20548;-43
2022/03/10 04:54:44;;;;;;;27.20;18.67;;;2.30;40.30;;;;;;5094980;28;20179;-44
2022/03/10 04:57:10;;;;;;;23.83;18.00;;;2.30;40.50;;;;;;5096762;28;20199;-44
2022/03/10 04:59:35;;;;;;;23.93;16.73;;;2.20;40.50;;;;;;5094943;28;20208;-42
2022/03/10 05:02:01;;;;;;;24.53;17.03;;;2.20;40.60;;;;;;5095917;28;20192;-44
2022/03/10 05:04:26;;;;;;;24.70;16.70;;;2.20;40.70;;;;;;5095022;28;20177;-47
2022/03/10 05:06:52;;;;;;;24.23;17.20;;;2.20;40.80;;;;;;5096553;28;20555;-49
2022/03/10 05:09:18;;;;;;;24.43;17.70;;;2.30;40.90;;;;;;5096077;28;20539;-47
2022/03/10 05:11:43;;;;;;;23.63;17.80;;;2.30;40.80;;;;;;5097738;28;20193;-48
2022/03/10 05:14:09;;;;;;;23.30;17.10;;;2.30;40.70;;;;;;5096031;28;20218;-47
2022/03/10 05:16:34;;;;;;;24.70;16.20;;;2.40;40.70;;;;;;5096938;28;20605;-47
2022/03/10 05:19:00;;;;;;;21.53;16.27;;;2.40;40.60;;;;;;5094838;28;20185;-47
2022/03/10 05:21:26;;;;;;;26.50;18.43;;;2.40;40.50;;;;;;5095098;28;20185;-47
2022/03/10 05:23:52;;;;;;;23.47;16.60;;;2.40;40.50;;;;;;5093952;28;20177;-47
2022/03/10 05:26:20;;;;;;;24.83;18.63;;;2.40;40.40;;;;;;5095284;28;20278;-48
2022/03/10 05:28:46;;;;;;;27.23;18.20;;;2.40;40.30;;;;;;5095259;28;20489;-47
2022/03/10 05:31:11;;;;;;;26.97;18.97;;;2.40;40.30;;;;;;5095131;28;20419;-47
2022/03/10 05:33:37;;;;;;;23.57;18.00;;;2.40;40.40;;;;;;5092800;28;20273;-39
2022/03/10 05:36:03;;;;;;;24.53;17.87;;;2.30;40.40;;;;;;5094597;28;20181;-40
2022/03/10 05:38:28;;;;;;;20.83;15.87;;;2.30;40.50;;;;;;5096733;28;20180;-37
2022/03/10 05:40:54;;;;;;;24.03;18.70;;;2.30;40.60;;;;;;5098276;28;20522;-40
2022/03/10 05:43:20;;;;;;;23.53;15.70;;;2.30;40.60;;;;;;5095759;28;20181;-40
2022/03/10 05:45:46;;;;;;;23.83;18.43;;;2.30;40.70;;;;;;5096915;28;20888;-38
2022/03/10 05:48:13;;;;;;;19.57;15.83;;;2.30;40.70;;;;;;5094571;28;20187;-39
2022/03/10 05:50:38;;;;;;;21.90;15.33;;;2.30;40.80;;;;;;5097195;28;20457;-47
2022/03/10 05:53:06;;;;;;;20.63;16.60;;;2.20;40.90;;;;;;5095636;28;20689;-41
2022/03/10 05:55:31;;;;;;;20.97;16.60;;;2.20;40.90;;;;;;5095915;28;20284;-39
2022/03/10 05:57:57;;;;;;;25.27;17.00;;;2.20;41.00;;;;;;5093979;28;20422;-39
2022/03/10 06:00:24;;;;;;;20.10;15.20;;;2.20;41.00;;;;;;5099023;28;20471;-39
2022/03/10 06:02:52;;;;;;;24.03;16.50;;;2.30;41.00;;;;;;5098860;28;20180;-42
2022/03/10 06:05:19;;;;;;;23.87;16.67;;;2.30;40.90;;;;;;5098799;28;20502;-40
2022/03/10 06:07:45;;;;;;;22.50;17.10;;;2.20;40.90;;;;;;5099855;28;20403;-37
2022/03/10 06:10:10;;;;;;;19.83;15.30;;;2.30;41.00;;;;;;5098089;28;20477;-41
2022/03/10 06:12:36;;;;;;;21.40;15.40;;;2.30;41.00;;;;;;5098389;28;20863;-41
2022/03/10 06:15:05;;;;;;;22.70;16.97;;;2.30;41.00;;;;;;5097619;28;20177;-39
2022/03/10 06:17:30;;;;;;;25.07;17.10;;;2.30;41.10;;;;;;5099376;28;20185;-39
2022/03/10 06:19:57;;;;;;;22.17;17.37;;;2.20;41.20;;;;;;5097782;28;20422;-39
2022/03/10 06:22:26;;;;;;;24.13;16.87;;;2.30;41.30;;;;;;5099087;28;20181;-40
2022/03/10 06:24:51;;;;;;;20.97;16.27;;;2.40;41.40;;;;;;5096703;28;20550;-43
2022/03/10 06:27:18;;;;;;;25.00;16.43;;;2.40;41.40;;;;;;5096597;28;20553;-37
2022/03/10 06:29:45;;;;;;;22.23;16.50;;;2.50;41.40;;;;;;5097297;28;20549;-39
2022/03/10 06:32:12;;;;;;;23.40;16.13;;;2.60;41.40;;;;;;5097669;28;20411;-40
2022/03/10 06:34:38;;;;;;;24.10;18.50;;;2.70;41.40;;;;;;5095641;28;20449;-41
2022/03/10 06:37:07;;;;;;;23.53;16.40;;;2.90;41.40;;;;;;5097222;28;20415;-39
2022/03/10 06:39:33;;;;;;;27.07;17.77;;;3.00;41.30;;;;;;5096061;28;20708;-41
2022/03/10 06:42:00;;;;;;;24.07;17.17;;;3.20;41.30;;;;;;5096607;28;20423;-40
2022/03/10 06:44:26;;;;;;;23.43;19.23;;;3.30;41.30;;;;;;5096178;28;20449;-40
2022/03/10 06:46:52;;;;;;;21.07;15.67;;;3.50;41.30;;;;;;5095816;28;20415;-40
2022/03/10 06:49:18;;;;;;;23.17;17.27;;;3.70;41.40;;;;;;5095231;28;20687;-40
2022/03/10 06:51:44;;;;;;;21.93;16.47;;;3.90;41.30;;;;;;5096028;28;20486;-41
2022/03/10 06:54:10;;;;;;;24.83;17.87;;;4.10;41.20;;;;;;5095039;28;20193;-40
2022/03/10 06:56:37;;;;;;;23.03;15.70;;;4.30;41.00;;;;;;5094841;28;20470;-44
2022/03/10 06:59:03;;;;;;;22.00;17.50;;;4.50;40.80;;;;;;5093339;28;20422;-40
2022/03/10 07:01:29;;;;;;;22.87;17.43;;;4.70;40.50;;;;;;5094959;28;20419;-41
2022/03/10 07:03:57;;;;;;;21.60;16.10;;;4.90;40.20;;;;;;5092577;28;20196;-38
2022/03/10 07:06:23;;;;;;;21.47;17.17;;;5.20;40.00;;;;;;5091746;28;20237;-40
2022/03/10 07:08:49;;;;;;;22.53;16.50;;;5.40;39.60;;;;;;5093326;28;20475;-41
2022/03/10 07:14:36;;;;;;;23.57;18.30;;;6.00;39.00;;;;;;5095195;28;20587;-40
2022/03/10 07:17:02;;;;;;;21.87;17.23;;;6.30;38.50;;;;;;5096159;28;20498;-39
2022/03/10 07:19:28;;;;;;;21.97;18.27;;;6.50;38.10;;;;;;5095271;28;20571;-41
2022/03/10 07:21:53;;;;;;;26.33;19.43;;;6.80;37.90;;;;;;5097872;28;20229;-39
2022/03/10 07:24:30;;;;;;;24.40;18.73;;;7.10;37.70;;;;;;5094937;28;20180;-43
2022/03/10 07:26:56;;;;;;;24.10;18.93;;;7.40;37.40;;;;;;5096183;28;20327;-40
2022/03/10 07:29:22;;;;;;;20.43;18.23;;;7.60;36.90;;;;;;5095834;28;21002;-43
2022/03/10 07:31:47;;;;;;;21.87;18.60;;;7.90;36.40;;;;;;5095089;28;20228;-40
2022/03/10 07:34:13;;;;;;;26.03;21.47;;;8.20;36.00;;;;;;5096410;28;20183;-40
2022/03/10 07:36:40;;;;;;;27.77;22.47;;;8.50;35.60;;;;;;5095821;28;20193;-43
2022/03/10 07:39:06;;;;;;;27.03;22.03;;;8.90;35.40;;;;;;5095365;28;20375;-40
2022/03/10 07:41:32;;;;;;;29.53;21.27;;;9.10;35.00;;;;;;5096873;28;20437;-42
2022/03/10 07:44:10;;;;;;;26.10;22.07;;;9.40;34.70;;;;;;5095000;28;20277;-42
2022/03/10 07:46:35;;;;;;;25.33;21.60;;;9.70;34.50;;;;;;5078807;28;20200;-40
2022/03/10 07:49:02;;;;;;;24.93;21.20;;;9.90;34.20;;;;;;5095053;28;20754;-40
2022/03/10 07:51:28;;;;;;;27.90;22.07;;;10.20;33.10;;;;;;5092909;28;20245;-41
2022/03/10 07:53:53;;;;;;;25.80;22.40;;;10.60;33.00;;;;;;5095007;28;20500;-41
2022/03/10 07:56:19;;;;;;;24.73;21.10;;;10.90;32.80;;;;;;5092379;28;20473;-40
2022/03/10 07:58:45;;;;;;;24.57;21.33;;;11.20;32.50;;;;;;5095322;28;20236;-39
2022/03/10 08:01:11;;;;;;;24.90;21.80;;;11.50;32.10;;;;;;5096167;28;20196;-43
2022/03/10 08:03:38;;;;;;;26.80;22.30;;;11.80;31.90;;;;;;5093738;28;20502;-40
2022/03/10 08:06:04;;;;;;;26.43;22.30;;;12.20;31.70;;;;;;5096644;28;20199;-43
2022/03/10 08:08:32;;;;;;;24.70;20.93;;;12.50;31.40;;;;;;5094908;28;20469;-40
2022/03/10 08:10:58;;;;;;;26.50;20.97;;;12.80;31.10;;;;;;5096653;28;20505;-44
2022/03/10 08:13:26;;;;;;;29.30;22.10;;;13.20;30.90;;;;;;5086655;28;20542;-43
2022/03/10 08:15:53;;;;;;;24.47;21.33;;;13.50;30.50;;;;;;5092081;28;20434;-40
2022/03/10 08:18:20;;;;;;;30.10;24.00;;;13.80;30.20;;;;;;5077522;28;20442;-40
2022/03/10 08:20:46;;;;;;;20.10;17.90;;;14.20;30.00;;;;;;5094309;28;20415;-44
2022/03/10 08:23:12;;;;;;;11.80;10.23;;;14.60;31.00;;;;;;5093364;28;20817;-42
2022/03/10 08:25:38;;;;;;;9.93;8.93;;;15.20;36.70;;;;;;5095560;28;20418;-40
2022/03/10 08:28:05;;;;;;;13.33;12.03;;;15.80;38.70;;;;;;5093324;28;20192;-42
2022/03/10 08:30:31;;;;;;;16.57;14.30;;;16.40;37.00;;;;;;5094295;28;20487;-41
2022/03/10 08:32:57;;;;;;;20.23;16.37;;;16.80;34.20;;;;;;5094911;28;20480;-40
2022/03/10 08:35:23;;;;;;;18.70;16.47;;;17.30;32.10;;;;;;5095957;28;20439;-43
2022/03/10 08:37:50;;;;;;;18.30;16.40;;;17.70;30.40;;;;;;5087970;28;20432;-42
2022/03/10 08:40:54;;;;;;;19.50;16.80;;;18.10;29.40;;;;;;5090122;28;20496;-40
2022/03/10 08:43:22;;;;;;;15.97;14.37;;;18.50;28.30;;;;;;5096195;28;20403;-39
2022/03/10 08:45:47;;;;;;;17.37;12.73;;;18.90;27.60;;;;;;5093240;28;20528;-42
2022/03/10 08:48:13;;;;;;;10.97;9.97;;;19.30;26.90;;;;;;5094027;28;20787;-39
2022/03/10 08:50:39;;;;;;;9.80;8.80;;;19.60;26.30;;;;;;5095842;28;20185;-42
2022/03/10 08:53:08;;;;;;;10.37;9.37;;;19.80;25.80;;;;;;5095206;28;20283;-41
2022/03/10 08:55:34;;;;;;;8.47;7.57;;;19.90;25.20;;;;;;5095261;28;20865;-41
2022/03/10 08:58:00;;;;;;;9.27;8.47;;;20.30;25.30;;;;;;5095716;28;20409;-42
2022/03/10 09:00:26;;;;;;;9.47;8.43;;;20.60;25.10;;;;;;5095800;28;20498;-39
2022/03/10 09:02:52;;;;;;;8.33;7.60;;;20.90;24.80;;;;;;5093814;28;20467;-40
2022/03/10 09:05:18;;;;;;;7.10;6.40;;;21.20;25.70;;;;;;5095437;28;20552;-39
2022/03/10 09:07:43;;;;;;;6.63;6.00;;;21.60;28.60;;;;;;5095319;28;20188;-42
2022/03/10 09:10:10;;;;;;;8.23;7.43;;;21.90;29.00;;;;;;5093410;28;20571;-40
2022/03/10 09:12:37;;;;;;;7.77;6.97;;;22.30;28.40;;;;;;5095390;28;20206;-41
2022/03/10 09:15:04;;;;;;;7.80;7.03;;;22.60;28.20;;;;;;5095365;28;20407;-40
2022/03/10 09:17:30;;;;;;;9.17;8.33;;;23.00;28.00;;;;;;5093959;28;20440;-41
2022/03/10 09:19:56;;;;;;;8.90;8.00;;;23.10;27.10;;;;;;5094528;28;20431;-40
2022/03/10 09:22:23;;;;;;;10.23;8.67;;;23.40;26.30;;;;;;5093089;28;20432;-41
2022/03/10 09:24:48;;;;;;;9.90;9.00;;;23.70;25.70;;;;;;5094391;28;20179;-41
2022/03/10 09:27:14;;;;;;;9.07;8.27;;;24.00;25.20;;;;;;5093837;28;20906;-40
2022/03/10 09:29:40;;;;;;;9.40;8.60;;;24.20;24.70;;;;;;5093745;28;20616;-40
2022/03/10 09:32:08;;;;;;;12.23;9.53;;;24.50;24.50;;;;;;5092604;28;20419;-41
2022/03/10 09:34:34;;;;;;;8.80;7.90;;;24.80;23.90;;;;;;5098331;28;20497;-41
2022/03/10 09:37:02;;;;;;;8.23;7.43;;;24.90;23.60;;;;;;5098914;28;20449;-39
2022/03/10 09:39:29;;;;;;;8.70;7.90;;;25.10;23.40;;;;;;5100117;28;20446;-41
2022/03/10 09:41:56;;;;;;;9.87;8.97;;;25.20;23.60;;;;;;5100236;28;20521;-39
2022/03/10 09:44:40;;;;;;;15.27;13.97;;;25.40;23.10;;;;;;5099880;28;20663;-41
2022/03/10 09:47:06;;;;;;;13.27;11.97;;;25.60;22.90;;;;;;5078418;28;20790;-41
2022/03/10 09:49:33;;;;;;;9.97;9.17;;;25.80;22.90;;;;;;5074970;28;20546;-40
2022/03/10 09:52:00;;;;;;;9.23;8.40;;;26.00;23.40;;;;;;5079107;28;20756;-43
2022/03/10 09:54:25;;;;;;;7.37;6.50;;;26.30;23.00;;;;;;5077460;28;20430;-43
2022/03/10 09:56:52;;;;;;;10.17;7.53;;;26.60;24.10;;;;;;5078806;28;20439;-44
2022/03/10 09:59:22;;;;;;;6.90;6.30;;;26.60;25.10;;;;;;5089709;28;20196;-46
2022/03/10 10:01:48;;;;;;;7.80;7.10;;;27.00;25.50;;;;;;5099841;28;20475;-42
2022/03/10 10:04:14;;;;;;;7.67;6.87;;;27.20;25.00;;;;;;5099261;28;20431;-43
2022/03/10 10:06:59;;;;;;;6.43;5.83;;;27.40;24.70;;;;;;5099919;28;20182;-44
2022/03/10 10:09:41;;;;;;;7.47;6.70;;;27.70;25.30;;;;;;5097458;28;20432;-46
2022/03/10 10:12:14;;;;;;;6.67;5.90;;;28.00;25.10;;;;;;5096920;28;20438;-41
2022/03/10 10:14:42;;;;;;;7.07;6.47;;;28.40;25.10;;;;;;5096460;28;20394;-41
2022/03/10 10:17:08;;;;;;;6.97;6.37;;;28.70;24.70;;;;;;5094842;28;20526;-41
2022/03/10 10:19:35;;;;;;;6.50;6.00;;;28.80;24.70;;;;;;5078532;28;20484;-45
2022/03/10 10:22:28;;;;;;;5.43;4.93;;;29.00;24.50;;;;;;5095581;28;20418;-44
2022/03/10 10:24:59;;;;;;;7.10;6.50;;;29.40;24.60;;;;;;5092245;28;20443;-42
2022/03/10 10:27:26;;;;;;;5.83;5.07;;;29.60;24.60;;;;;;5095703;28;20463;-42
2022/03/10 10:29:57;;;;;;;6.10;5.60;;;29.90;24.40;;;;;;5095228;28;20441;-42
2022/03/10 10:32:32;;;;;;;6.23;5.73;;;30.10;23.90;;;;;;5096343;28;20704;-44
2022/03/10 10:35:02;;;;;;;5.90;5.40;;;30.10;23.30;;;;;;5097209;28;20433;-41
2022/03/10 10:37:29;;;;;;;6.50;6.00;;;30.10;22.80;;;;;;5097556;28;20697;-42
2022/03/10 10:39:56;;;;;;;6.17;5.67;;;30.10;22.60;;;;;;5097612;28;20493;-41
2022/03/10 10:42:42;;;;;;;7.27;6.03;;;30.10;22.50;;;;;;5098062;28;20408;-43
2022/03/10 10:45:30;;;;;;;5.33;4.93;;;30.00;22.30;;;;;;5095781;28;20901;-42
2022/03/10 10:48:04;;;;;;;6.13;5.53;;;30.10;21.20;;;;;;5099572;28;20498;-41
2022/03/10 10:50:36;;;;;;;6.20;5.63;;;30.00;21.70;;;;;;5096681;28;20570;-40
2022/03/10 10:53:03;;;;;;;8.10;6.70;;;30.10;22.20;;;;;;5098466;27;20511;-45
2022/03/10 10:55:46;;;;;;;6.07;5.57;;;30.00;21.70;;;;;;5139736;27;20444;-44
2022/03/10 10:58:15;;;;;;;5.67;5.17;;;30.00;22.40;;;;;;5138394;27;20501;-42
2022/03/10 11:00:42;;;;;;;7.70;7.00;;;30.40;21.90;;;;;;5138252;27;20415;-44
2022/03/10 11:03:23;;;;;;;7.83;5.30;;;30.50;22.20;;;;;;5119266;27;20421;-42
2022/03/10 11:05:49;;;;;;;5.63;5.13;;;30.60;23.10;;;;;;5120288;27;20416;-43
2022/03/10 11:08:17;;;;;;;6.17;5.67;;;31.40;23.60;;;;;;5137634;27;21032;-42
2022/03/10 11:10:43;;;;;;;6.13;5.63;;;31.30;23.20;;;;;;5139204;27;20831;-41
2022/03/10 11:13:08;;;;;;;6.67;6.07;;;31.40;22.50;;;;;;5138360;27;20394;-43
2022/03/10 11:15:35;;;;;;;6.90;6.30;;;31.40;23.00;;;;;;5137301;27;20175;-42
2022/03/10 11:18:03;;;;;;;6.10;5.60;;;31.20;22.10;;;;;;5119859;27;20182;-46
2022/03/10 11:20:31;;;;;;;6.67;6.07;;;31.20;22.20;;;;;;5139186;27;20464;-45
2022/03/10 11:23:08;;;;;;;6.07;5.57;;;31.50;21.90;;;;;;5138807;27;20440;-42
2022/03/10 11:25:51;;;;;;;6.70;6.13;;;31.70;21.80;;;;;;5118949;27;20513;-43
2022/03/10 11:28:30;;;;;;;5.67;5.17;;;32.10;21.80;;;;;;5134082;27;20387;-43
2022/03/10 11:31:03;;;;;;;5.87;5.47;;;32.50;21.40;;;;;;5134687;27;20416;-41
2022/03/10 11:33:30;;;;;;;5.60;5.20;;;32.90;20.80;;;;;;5118749;27;20528;-42
2022/03/10 11:35:56;;;;;;;6.27;5.77;;;32.80;21.30;;;;;;5137359;27;20408;-42
2022/03/10 11:38:31;;;;;;;5.30;4.90;;;33.00;21.20;;;;;;5136360;27;20452;-42
2022/03/10 11:40:57;;;;;;;5.60;5.10;;;32.90;20.90;;;;;;5137045;27;20414;-41
2022/03/10 11:43:32;;;;;;;6.50;6.00;;;32.80;20.40;;;;;;5116394;27;20426;-40
2022/03/10 11:46:19;;;;;;;5.03;4.40;;;33.10;21.00;;;;;;5136576;27;20277;-40
2022/03/10 11:49:06;;;;;;;4.77;4.37;;;33.40;21.50;;;;;;5136920;27;20643;-41
2022/03/10 11:51:54;;;;;;;5.07;4.67;;;34.00;22.20;;;;;;5134617;27;20403;-40
2022/03/10 11:54:25;;;;;;;3.80;3.50;;;34.30;21.20;;;;;;5117767;27;20802;-44
2022/03/10 11:56:51;;;;;;;4.80;4.33;;;34.50;22.00;;;;;;5135903;27;20806;-43
2022/03/10 11:59:18;;;;;;;4.03;3.73;;;35.00;22.00;;;;;;5134022;27;20749;-43
2022/03/10 12:01:44;;;;;;;4.50;4.10;;;35.30;22.70;;;;;;5136362;27;20263;-42
2022/03/10 12:04:15;;;;;;;3.90;3.60;;;35.30;24.60;;;;;;5137420;27;20903;-43
2022/03/10 12:06:54;;;;;;;4.57;4.20;;;35.40;24.80;;;;;;5137296;27;20199;-43
2022/03/10 12:09:30;;;;;;;3.70;3.40;;;35.70;24.30;;;;;;5136588;27;20424;-46
2022/03/10 12:12:20;;;;;;;4.07;3.67;;;35.90;21.70;;;;;;5136483;27;20476;-43
2022/03/10 12:14:47;;;;;;;3.70;3.40;;;36.30;21.40;;;;;;5117727;27;20772;-43
2022/03/10 12:17:44;;;;;;;3.47;3.17;;;36.60;21.10;;;;;;5135313;27;20410;-44
2022/03/10 12:20:24;;;;;;;4.10;3.70;;;36.70;21.10;;;;;;5135597;27;20469;-41
2022/03/10 12:23:12;;;;;;;3.50;3.20;;;37.00;21.50;;;;;;5133795;27;20391;-44
2022/03/10 12:25:49;;;;;;;3.10;2.80;;;37.10;20.00;;;;;;5133969;27;20706;-44
2022/03/10 12:28:29;;;;;;;5.70;2.93;;;37.20;20.70;;;;;;5134372;27;20445;-44
2022/03/10 12:31:05;;;;;;;3.10;2.90;;;37.30;20.90;;;;;;5132180;27;20463;-44
2022/03/10 12:33:31;;;;;;;3.03;2.60;;;37.30;20.80;;;;;;5132982;27;20404;-44
2022/03/10 12:35:58;;;;;;;6.90;3.90;;;37.50;20.80;;;;;;5132517;27;20435;-43
2022/03/10 12:38:41;;;;;;;3.43;3.13;;;37.40;20.20;;;;;;5133569;27;20254;-46
2022/03/10 12:41:08;;;;;;;4.63;3.20;;;37.20;20.70;;;;;;5133334;27;20441;-43
2022/03/10 12:43:34;;;;;;;3.07;2.77;;;37.40;21.00;;;;;;5134147;27;20569;-44
2022/03/10 12:46:01;;;;;;;3.47;3.17;;;37.50;21.00;;;;;;5116147;27;20480;-46
2022/03/10 12:48:57;;;;;;;3.20;2.90;;;37.50;20.50;;;;;;5131423;27;20840;-43
2022/03/10 12:51:29;;;;;;;5.80;3.17;;;37.70;20.20;;;;;;5044263;28;21052;-44